< < Back
Terminal Aerodrome Forecast


Current Version              Previous Versions:   1  2  3  4  5  6  7  8  9  

Terminal Aerodrome Forecast

468
FTUS42 KJAX 111721
TAFJAX
TAF
KJAX 111721Z 1118/1218 25009KT P6SM SKC
     FM120200 21005KT P6SM FEW250
     FM120900 22007KT P6SM SCT025
     FM121500 24014G22KT P6SM SCT035 BKN250=

Latest METAR

653
SAUS80 KWBC 112100
MTRJAX
METAR KJAX 112056Z 23010KT 10SM FEW010 20/03 A3015 RMK AO2 SLP211 FU
FEW010 T02000033 56022


USA.gov is the U.S. government's official web portal to all federal, state and local government web resources and services.